Gravel Beach, Indiana
Current Conditions -  °F | °C
As of 7:35 AM on Wednesday 28 Jan 2015 (Local Time) from KANQ Reporting Station
Clear Clear  
Wind Chill:   Ceiling: Unl
Heat Index:   Visibility: 10mi
Dew Point:   Wind: 0mph
Humidity: 85%   Direction: NA
Pressure: 30.3"   Gusts: NA
Location:  41.5628°N, 85.1391°W
Report Text: KANQ 281235Z AUTO 00000KT 10SM CLR M15/M17 A3030 RMK
Loading
Personal Weather Stations






























Interactive Weather Map New forecast layout! Learn more

10-Day Weather Forecast

Advertisements
Track Severe Weather on mobile